sensor_id;sensor_type;location;lat;lon;timestamp;P1;durP1;ratioP1;P2;durP2;ratioP2
26106;SDS011;13866;50.748;12.630;2022-08-25T00:01:14;22.90;;;18.10;;
26106;SDS011;13866;50.748;12.630;2022-08-25T00:03:47;26.57;;;23.77;;
26106;SDS011;13866;50.748;12.630;2022-08-25T00:06:13;23.27;;;21.13;;
26106;SDS011;13866;50.748;12.630;2022-08-25T00:08:40;23.60;;;21.40;;
26106;SDS011;13866;50.748;12.630;2022-08-25T00:11:06;24.13;;;21.37;;
26106;SDS011;13866;50.748;12.630;2022-08-25T00:13:36;24.17;;;21.77;;
26106;SDS011;13866;50.748;12.630;2022-08-25T00:16:07;23.07;;;20.43;;
26106;SDS011;13866;50.748;12.630;2022-08-25T00:18:34;27.23;;;21.67;;
26106;SDS011;13866;50.748;12.630;2022-08-25T00:21:01;22.40;;;20.17;;
26106;SDS011;13866;50.748;12.630;2022-08-25T00:23:26;24.20;;;21.70;;
26106;SDS011;13866;50.748;12.630;2022-08-25T00:25:52;22.47;;;20.33;;
26106;SDS011;13866;50.748;12.630;2022-08-25T00:28:19;22.30;;;19.83;;
26106;SDS011;13866;50.748;12.630;2022-08-25T00:30:44;22.23;;;19.90;;
26106;SDS011;13866;50.748;12.630;2022-08-25T00:33:10;24.60;;;21.73;;
26106;SDS011;13866;50.748;12.630;2022-08-25T00:35:36;27.03;;;22.97;;
26106;SDS011;13866;50.748;12.630;2022-08-25T00:38:02;27.97;;;22.87;;
26106;SDS011;13866;50.748;12.630;2022-08-25T00:40:28;23.87;;;21.47;;
26106;SDS011;13866;50.748;12.630;2022-08-25T00:42:54;22.60;;;20.30;;
26106;SDS011;13866;50.748;12.630;2022-08-25T00:45:20;27.80;;;21.03;;
26106;SDS011;13866;50.748;12.630;2022-08-25T00:47:47;27.73;;;22.37;;
26106;SDS011;13866;50.748;12.630;2022-08-25T00:50:13;26.07;;;22.90;;
26106;SDS011;13866;50.748;12.630;2022-08-25T00:52:41;26.20;;;21.33;;
26106;SDS011;13866;50.748;12.630;2022-08-25T00:55:26;24.07;;;21.67;;
26106;SDS011;13866;50.748;12.630;2022-08-25T00:57:55;33.13;;;21.80;;
26106;SDS011;13866;50.748;12.630;2022-08-25T01:00:28;24.73;;;22.23;;
26106;SDS011;13866;50.748;12.630;2022-08-25T01:03:00;24.00;;;21.50;;
26106;SDS011;13866;50.748;12.630;2022-08-25T01:05:26;29.63;;;24.10;;
26106;SDS011;13866;50.748;12.630;2022-08-25T01:07:53;27.00;;;24.20;;
26106;SDS011;13866;50.748;12.630;2022-08-25T01:10:20;24.23;;;21.80;;
26106;SDS011;13866;50.748;12.630;2022-08-25T01:12:46;29.23;;;22.90;;
26106;SDS011;13866;50.748;12.630;2022-08-25T01:15:13;34.30;;;25.67;;
26106;SDS011;13866;50.748;12.630;2022-08-25T01:20:16;29.50;;;26.37;;
26106;SDS011;13866;50.748;12.630;2022-08-25T01:22:44;26.33;;;23.60;;
26106;SDS011;13866;50.748;12.630;2022-08-25T01:25:16;29.50;;;25.67;;
26106;SDS011;13866;50.748;12.630;2022-08-25T01:27:55;39.30;;;24.40;;
26106;SDS011;13866;50.748;12.630;2022-08-25T01:30:21;36.07;;;26.47;;
26106;SDS011;13866;50.748;12.630;2022-08-25T01:32:47;24.20;;;22.00;;
26106;SDS011;13866;50.748;12.630;2022-08-25T01:35:13;23.93;;;21.10;;
26106;SDS011;13866;50.748;12.630;2022-08-25T01:37:39;23.03;;;20.80;;
26106;SDS011;13866;50.748;12.630;2022-08-25T01:40:04;24.43;;;22.00;;
26106;SDS011;13866;50.748;12.630;2022-08-25T01:42:40;22.73;;;20.63;;
26106;SDS011;13866;50.748;12.630;2022-08-25T01:45:16;30.03;;;23.17;;
26106;SDS011;13866;50.748;12.630;2022-08-25T01:47:42;23.53;;;21.10;;
26106;SDS011;13866;50.748;12.630;2022-08-25T01:50:08;25.03;;;21.77;;
26106;SDS011;13866;50.748;12.630;2022-08-25T01:52:44;24.63;;;22.03;;
26106;SDS011;13866;50.748;12.630;2022-08-25T01:55:15;25.07;;;22.37;;
26106;SDS011;13866;50.748;12.630;2022-08-25T01:57:41;31.77;;;24.53;;
26106;SDS011;13866;50.748;12.630;2022-08-25T02:00:08;24.73;;;22.07;;
26106;SDS011;13866;50.748;12.630;2022-08-25T02:02:35;27.87;;;22.90;;
26106;SDS011;13866;50.748;12.630;2022-08-25T02:05:01;27.20;;;23.87;;
26106;SDS011;13866;50.748;12.630;2022-08-25T02:07:27;25.77;;;22.20;;
26106;SDS011;13866;50.748;12.630;2022-08-25T02:09:53;26.73;;;24.13;;
26106;SDS011;13866;50.748;12.630;2022-08-25T02:12:18;26.23;;;23.50;;
26106;SDS011;13866;50.748;12.630;2022-08-25T02:14:44;24.17;;;21.70;;
26106;SDS011;13866;50.748;12.630;2022-08-25T02:17:10;26.47;;;21.70;;
26106;SDS011;13866;50.748;12.630;2022-08-25T02:19:35;24.90;;;22.27;;
26106;SDS011;13866;50.748;12.630;2022-08-25T02:22:01;24.07;;;20.87;;
26106;SDS011;13866;50.748;12.630;2022-08-25T02:24:27;26.53;;;21.37;;
26106;SDS011;13866;50.748;12.630;2022-08-25T02:26:52;23.90;;;20.90;;
26106;SDS011;13866;50.748;12.630;2022-08-25T02:29:19;25.57;;;22.97;;
26106;SDS011;13866;50.748;12.630;2022-08-25T02:31:44;29.10;;;22.30;;
26106;SDS011;13866;50.748;12.630;2022-08-25T02:34:10;29.43;;;24.77;;
26106;SDS011;13866;50.748;12.630;2022-08-25T02:36:39;26.43;;;23.63;;
26106;SDS011;13866;50.748;12.630;2022-08-25T02:39:05;25.23;;;21.80;;
26106;SDS011;13866;50.748;12.630;2022-08-25T02:41:31;25.53;;;22.47;;
26106;SDS011;13866;50.748;12.630;2022-08-25T02:44:01;26.37;;;22.90;;
26106;SDS011;13866;50.748;12.630;2022-08-25T02:46:28;22.80;;;20.60;;
26106;SDS011;13866;50.748;12.630;2022-08-25T02:48:54;33.23;;;23.00;;
26106;SDS011;13866;50.748;12.630;2022-08-25T02:51:21;27.37;;;24.37;;
26106;SDS011;13866;50.748;12.630;2022-08-25T02:53:48;26.43;;;23.90;;
26106;SDS011;13866;50.748;12.630;2022-08-25T02:56:14;25.43;;;22.83;;
26106;SDS011;13866;50.748;12.630;2022-08-25T02:58:41;31.80;;;25.23;;
26106;SDS011;13866;50.748;12.630;2022-08-25T03:01:08;28.10;;;25.10;;
26106;SDS011;13866;50.748;12.630;2022-08-25T03:03:37;26.50;;;23.87;;
26106;SDS011;13866;50.748;12.630;2022-08-25T03:06:05;30.20;;;23.70;;
26106;SDS011;13866;50.748;12.630;2022-08-25T03:08:35;27.20;;;24.30;;
26106;SDS011;13866;50.748;12.630;2022-08-25T03:11:01;25.20;;;22.50;;
26106;SDS011;13866;50.748;12.630;2022-08-25T03:13:27;43.67;;;25.43;;
26106;SDS011;13866;50.748;12.630;2022-08-25T03:15:52;29.23;;;26.30;;
26106;SDS011;13866;50.748;12.630;2022-08-25T03:18:18;29.03;;;26.07;;
26106;SDS011;13866;50.748;12.630;2022-08-25T03:20:44;28.50;;;25.50;;
26106;SDS011;13866;50.748;12.630;2022-08-25T03:23:09;28.93;;;26.13;;
26106;SDS011;13866;50.748;12.630;2022-08-25T03:25:35;29.90;;;23.60;;
26106;SDS011;13866;50.748;12.630;2022-08-25T03:28:22;37.70;;;25.93;;
26106;SDS011;13866;50.748;12.630;2022-08-25T03:30:47;32.77;;;24.40;;
26106;SDS011;13866;50.748;12.630;2022-08-25T03:33:13;26.03;;;23.23;;
26106;SDS011;13866;50.748;12.630;2022-08-25T03:35:38;28.20;;;23.57;;
26106;SDS011;13866;50.748;12.630;2022-08-25T03:38:04;28.53;;;25.50;;
26106;SDS011;13866;50.748;12.630;2022-08-25T03:40:30;26.40;;;23.60;;
26106;SDS011;13866;50.748;12.630;2022-08-25T03:42:56;26.67;;;23.87;;
26106;SDS011;13866;50.748;12.630;2022-08-25T03:45:22;26.10;;;23.33;;
26106;SDS011;13866;50.748;12.630;2022-08-25T03:47:49;32.40;;;26.30;;
26106;SDS011;13866;50.748;12.630;2022-08-25T03:50:16;29.70;;;26.50;;
26106;SDS011;13866;50.748;12.630;2022-08-25T03:52:43;24.60;;;22.30;;
26106;SDS011;13866;50.748;12.630;2022-08-25T03:55:14;26.73;;;24.10;;
26106;SDS011;13866;50.748;12.630;2022-08-25T03:57:39;25.97;;;23.33;;
26106;SDS011;13866;50.748;12.630;2022-08-25T04:00:06;27.23;;;24.00;;
26106;SDS011;13866;50.748;12.630;2022-08-25T04:02:33;27.23;;;23.17;;
26106;SDS011;13866;50.748;12.630;2022-08-25T04:04:59;25.17;;;22.57;;
26106;SDS011;13866;50.748;12.630;2022-08-25T04:07:24;24.13;;;21.57;;
26106;SDS011;13866;50.748;12.630;2022-08-25T04:09:50;23.53;;;20.73;;
26106;SDS011;13866;50.748;12.630;2022-08-25T04:12:18;24.50;;;22.17;;
26106;SDS011;13866;50.748;12.630;2022-08-25T04:14:44;24.93;;;22.30;;
26106;SDS011;13866;50.748;12.630;2022-08-25T04:17:09;24.97;;;20.10;;
26106;SDS011;13866;50.748;12.630;2022-08-25T04:19:35;24.30;;;22.00;;
26106;SDS011;13866;50.748;12.630;2022-08-25T04:22:01;29.63;;;23.37;;
26106;SDS011;13866;50.748;12.630;2022-08-25T04:24:26;23.33;;;20.93;;
26106;SDS011;13866;50.748;12.630;2022-08-25T04:26:52;26.70;;;22.67;;
26106;SDS011;13866;50.748;12.630;2022-08-25T04:29:19;30.63;;;24.00;;
26106;SDS011;13866;50.748;12.630;2022-08-25T04:31:46;25.87;;;22.97;;
26106;SDS011;13866;50.748;12.630;2022-08-25T04:34:14;26.67;;;23.97;;
26106;SDS011;13866;50.748;12.630;2022-08-25T04:36:40;26.77;;;22.50;;
26106;SDS011;13866;50.748;12.630;2022-08-25T04:39:06;24.97;;;22.33;;
26106;SDS011;13866;50.748;12.630;2022-08-25T04:41:31;28.63;;;23.43;;
26106;SDS011;13866;50.748;12.630;2022-08-25T04:43:59;29.70;;;26.37;;
26106;SDS011;13866;50.748;12.630;2022-08-25T04:46:26;27.37;;;24.47;;
26106;SDS011;13866;50.748;12.630;2022-08-25T04:48:54;38.53;;;22.97;;
26106;SDS011;13866;50.748;12.630;2022-08-25T04:51:31;26.57;;;23.80;;
26106;SDS011;13866;50.748;12.630;2022-08-25T04:53:58;27.80;;;24.67;;
26106;SDS011;13866;50.748;12.630;2022-08-25T04:56:26;33.70;;;28.00;;
26106;SDS011;13866;50.748;12.630;2022-08-25T04:58:53;26.20;;;23.40;;
26106;SDS011;13866;50.748;12.630;2022-08-25T05:01:21;32.07;;;25.27;;
26106;SDS011;13866;50.748;12.630;2022-08-25T05:03:51;31.40;;;28.10;;
26106;SDS011;13866;50.748;12.630;2022-08-25T05:06:19;27.63;;;24.80;;
26106;SDS011;13866;50.748;12.630;2022-08-25T05:08:44;30.50;;;26.03;;
26106;SDS011;13866;50.748;12.630;2022-08-25T05:11:11;37.73;;;27.60;;
26106;SDS011;13866;50.748;12.630;2022-08-25T05:13:39;31.17;;;27.80;;
26106;SDS011;13866;50.748;12.630;2022-08-25T05:16:05;36.30;;;27.37;;
26106;SDS011;13866;50.748;12.630;2022-08-25T05:18:31;32.07;;;27.10;;
26106;SDS011;13866;50.748;12.630;2022-08-25T05:21:05;34.40;;;24.50;;
26106;SDS011;13866;50.748;12.630;2022-08-25T05:23:33;31.17;;;25.23;;
26106;SDS011;13866;50.748;12.630;2022-08-25T05:26:06;26.73;;;22.67;;
26106;SDS011;13866;50.748;12.630;2022-08-25T05:28:34;35.43;;;24.63;;
26106;SDS011;13866;50.748;12.630;2022-08-25T05:31:00;30.17;;;25.10;;
26106;SDS011;13866;50.748;12.630;2022-08-25T05:33:27;25.53;;;23.20;;
26106;SDS011;13866;50.748;12.630;2022-08-25T05:35:53;23.50;;;20.97;;
26106;SDS011;13866;50.748;12.630;2022-08-25T05:38:19;23.60;;;21.20;;
26106;SDS011;13866;50.748;12.630;2022-08-25T05:40:45;26.73;;;23.13;;
26106;SDS011;13866;50.748;12.630;2022-08-25T05:43:10;24.13;;;20.80;;
26106;SDS011;13866;50.748;12.630;2022-08-25T05:45:38;24.27;;;21.50;;
26106;SDS011;13866;50.748;12.630;2022-08-25T05:48:04;22.00;;;19.80;;
26106;SDS011;13866;50.748;12.630;2022-08-25T05:50:29;26.53;;;19.50;;
26106;SDS011;13866;50.748;12.630;2022-08-25T05:52:55;24.33;;;21.70;;
26106;SDS011;13866;50.748;12.630;2022-08-25T05:55:20;23.40;;;19.77;;
26106;SDS011;13866;50.748;12.630;2022-08-25T05:57:46;24.03;;;21.33;;
26106;SDS011;13866;50.748;12.630;2022-08-25T06:00:12;21.53;;;19.63;;
26106;SDS011;13866;50.748;12.630;2022-08-25T06:02:39;21.93;;;19.80;;
26106;SDS011;13866;50.748;12.630;2022-08-25T06:05:05;24.03;;;19.90;;
26106;SDS011;13866;50.748;12.630;2022-08-25T06:07:41;22.53;;;20.20;;
26106;SDS011;13866;50.748;12.630;2022-08-25T06:10:07;21.63;;;19.07;;
26106;SDS011;13866;50.748;12.630;2022-08-25T06:12:37;20.70;;;18.60;;
26106;SDS011;13866;50.748;12.630;2022-08-25T06:15:04;20.33;;;18.37;;
26106;SDS011;13866;50.748;12.630;2022-08-25T06:17:30;20.07;;;18.07;;
26106;SDS011;13866;50.748;12.630;2022-08-25T06:19:56;21.53;;;19.27;;
26106;SDS011;13866;50.748;12.630;2022-08-25T06:22:21;19.17;;;17.47;;
26106;SDS011;13866;50.748;12.630;2022-08-25T06:24:49;26.50;;;18.93;;
26106;SDS011;13866;50.748;12.630;2022-08-25T06:27:15;25.57;;;19.90;;
26106;SDS011;13866;50.748;12.630;2022-08-25T06:29:41;24.37;;;19.93;;
26106;SDS011;13866;50.748;12.630;2022-08-25T06:32:07;22.13;;;19.80;;
26106;SDS011;13866;50.748;12.630;2022-08-25T06:34:32;27.23;;;17.67;;
26106;SDS011;13866;50.748;12.630;2022-08-25T06:36:58;20.00;;;18.00;;
26106;SDS011;13866;50.748;12.630;2022-08-25T06:39:23;22.83;;;20.57;;
26106;SDS011;13866;50.748;12.630;2022-08-25T06:41:50;22.20;;;20.07;;
26106;SDS011;13866;50.748;12.630;2022-08-25T06:44:16;20.07;;;18.33;;
26106;SDS011;13866;50.748;12.630;2022-08-25T06:46:42;22.03;;;19.43;;
26106;SDS011;13866;50.748;12.630;2022-08-25T06:49:07;20.73;;;16.03;;
26106;SDS011;13866;50.748;12.630;2022-08-25T06:51:33;19.10;;;17.40;;
26106;SDS011;13866;50.748;12.630;2022-08-25T06:54:03;19.27;;;16.60;;
26106;SDS011;13866;50.748;12.630;2022-08-25T06:56:30;23.10;;;17.60;;
26106;SDS011;13866;50.748;12.630;2022-08-25T06:58:56;19.43;;;17.50;;
26106;SDS011;13866;50.748;12.630;2022-08-25T07:01:22;19.73;;;17.83;;
26106;SDS011;13866;50.748;12.630;2022-08-25T07:03:50;19.53;;;17.53;;
26106;SDS011;13866;50.748;12.630;2022-08-25T07:06:18;23.90;;;16.43;;
26106;SDS011;13866;50.748;12.630;2022-08-25T07:08:45;19.87;;;17.20;;
26106;SDS011;13866;50.748;12.630;2022-08-25T07:11:11;17.93;;;16.17;;
26106;SDS011;13866;50.748;12.630;2022-08-25T07:13:38;17.00;;;15.30;;
26106;SDS011;13866;50.748;12.630;2022-08-25T07:16:04;21.70;;;18.43;;
26106;SDS011;13866;50.748;12.630;2022-08-25T07:18:30;18.83;;;16.93;;
26106;SDS011;13866;50.748;12.630;2022-08-25T07:20:56;20.47;;;18.67;;
26106;SDS011;13866;50.748;12.630;2022-08-25T07:23:22;21.03;;;17.60;;
26106;SDS011;13866;50.748;12.630;2022-08-25T07:25:49;20.30;;;18.40;;
26106;SDS011;13866;50.748;12.630;2022-08-25T07:28:15;24.53;;;19.70;;
26106;SDS011;13866;50.748;12.630;2022-08-25T07:30:41;21.33;;;18.43;;
26106;SDS011;13866;50.748;12.630;2022-08-25T07:33:07;23.33;;;17.47;;
26106;SDS011;13866;50.748;12.630;2022-08-25T07:35:33;20.47;;;17.83;;
26106;SDS011;13866;50.748;12.630;2022-08-25T07:38:01;19.17;;;17.20;;
26106;SDS011;13866;50.748;12.630;2022-08-25T07:40:31;19.83;;;18.03;;
26106;SDS011;13866;50.748;12.630;2022-08-25T07:42:59;24.17;;;21.77;;
26106;SDS011;13866;50.748;12.630;2022-08-25T07:45:27;21.43;;;19.30;;
26106;SDS011;13866;50.748;12.630;2022-08-25T07:47:59;22.40;;;20.03;;
26106;SDS011;13866;50.748;12.630;2022-08-25T07:50:26;20.93;;;18.83;;
26106;SDS011;13866;50.748;12.630;2022-08-25T07:52:53;27.50;;;22.07;;
26106;SDS011;13866;50.748;12.630;2022-08-25T07:55:20;24.73;;;22.47;;
26106;SDS011;13866;50.748;12.630;2022-08-25T07:57:45;24.73;;;22.10;;
26106;SDS011;13866;50.748;12.630;2022-08-25T08:00:12;30.37;;;22.37;;
26106;SDS011;13866;50.748;12.630;2022-08-25T08:02:39;29.23;;;22.73;;
26106;SDS011;13866;50.748;12.630;2022-08-25T08:05:05;30.47;;;21.90;;
26106;SDS011;13866;50.748;12.630;2022-08-25T08:07:31;24.70;;;21.30;;
26106;SDS011;13866;50.748;12.630;2022-08-25T08:09:57;23.60;;;20.30;;
26106;SDS011;13866;50.748;12.630;2022-08-25T08:12:23;23.47;;;20.93;;
26106;SDS011;13866;50.748;12.630;2022-08-25T08:14:49;24.77;;;19.20;;
26106;SDS011;13866;50.748;12.630;2022-08-25T08:17:16;22.40;;;20.00;;
26106;SDS011;13866;50.748;12.630;2022-08-25T08:19:41;25.03;;;19.90;;
26106;SDS011;13866;50.748;12.630;2022-08-25T08:22:07;22.03;;;19.50;;
26106;SDS011;13866;50.748;12.630;2022-08-25T08:24:35;23.40;;;15.97;;
26106;SDS011;13866;50.748;12.630;2022-08-25T08:27:04;25.23;;;18.40;;
26106;SDS011;13866;50.748;12.630;2022-08-25T08:29:30;22.23;;;16.30;;
26106;SDS011;13866;50.748;12.630;2022-08-25T08:31:56;24.93;;;17.50;;
26106;SDS011;13866;50.748;12.630;2022-08-25T08:34:22;16.70;;;14.57;;
26106;SDS011;13866;50.748;12.630;2022-08-25T08:36:48;17.37;;;15.43;;
26106;SDS011;13866;50.748;12.630;2022-08-25T08:39:13;17.03;;;14.50;;
26106;SDS011;13866;50.748;12.630;2022-08-25T08:41:43;16.43;;;14.93;;
26106;SDS011;13866;50.748;12.630;2022-08-25T08:52:49;14.63;;;13.40;;
26106;SDS011;13866;50.748;12.630;2022-08-25T08:55:25;12.50;;;11.53;;
26106;SDS011;13866;50.748;12.630;2022-08-25T08:57:56;16.37;;;13.33;;
26106;SDS011;13866;50.748;12.630;2022-08-25T09:00:23;15.60;;;12.43;;
26106;SDS011;13866;50.748;12.630;2022-08-25T09:02:52;24.27;;;12.00;;
26106;SDS011;13866;50.748;12.630;2022-08-25T09:05:27;17.43;;;13.57;;
26106;SDS011;13866;50.748;12.630;2022-08-25T09:07:56;14.47;;;12.03;;
26106;SDS011;13866;50.748;12.630;2022-08-25T09:10:25;13.47;;;12.27;;
26106;SDS011;13866;50.748;12.630;2022-08-25T09:13:13;18.13;;;13.00;;
26106;SDS011;13866;50.748;12.630;2022-08-25T09:21:33;25.23;;;12.47;;
26106;SDS011;13866;50.748;12.630;2022-08-25T09:24:20;14.30;;;12.83;;
26106;SDS011;13866;50.748;12.630;2022-08-25T09:32:35;11.83;;;10.00;;
26106;SDS011;13866;50.748;12.630;2022-08-25T09:35:04;19.40;;;11.07;;
26106;SDS011;13866;50.748;12.630;2022-08-25T09:37:31;14.53;;;10.70;;
26106;SDS011;13866;50.748;12.630;2022-08-25T09:39:56;16.20;;;9.07;;
26106;SDS011;13866;50.748;12.630;2022-08-25T09:42:22;10.70;;;9.60;;
26106;SDS011;13866;50.748;12.630;2022-08-25T09:45:13;12.47;;;9.20;;
26106;SDS011;13866;50.748;12.630;2022-08-25T09:47:43;14.03;;;9.33;;
26106;SDS011;13866;50.748;12.630;2022-08-25T09:50:16;10.57;;;9.00;;
26106;SDS011;13866;50.748;12.630;2022-08-25T09:52:43;14.30;;;10.43;;
26106;SDS011;13866;50.748;12.630;2022-08-25T10:02:37;13.33;;;9.20;;
26106;SDS011;13866;50.748;12.630;2022-08-25T10:05:22;16.17;;;9.27;;
26106;SDS011;13866;50.748;12.630;2022-08-25T10:07:59;15.17;;;8.90;;
26106;SDS011;13866;50.748;12.630;2022-08-25T10:10:33;16.10;;;8.83;;
26106;SDS011;13866;50.748;12.630;2022-08-25T10:13:02;15.60;;;9.50;;
26106;SDS011;13866;50.748;12.630;2022-08-25T10:15:41;16.90;;;8.33;;
26106;SDS011;13866;50.748;12.630;2022-08-25T10:18:15;12.60;;;8.27;;
26106;SDS011;13866;50.748;12.630;2022-08-25T10:23:26;20.67;;;9.23;;
26106;SDS011;13866;50.748;12.630;2022-08-25T10:25:52;19.43;;;9.20;;
26106;SDS011;13866;50.748;12.630;2022-08-25T10:28:32;25.20;;;9.57;;
26106;SDS011;13866;50.748;12.630;2022-08-25T10:31:24;17.30;;;8.83;;
26106;SDS011;13866;50.748;12.630;2022-08-25T10:39:46;29.10;;;7.87;;
26106;SDS011;13866;50.748;12.630;2022-08-25T10:43:23;20.23;;;8.03;;
26106;SDS011;13866;50.748;12.630;2022-08-25T10:46:05;19.53;;;6.50;;
26106;SDS011;13866;50.748;12.630;2022-08-25T10:48:46;23.40;;;7.37;;
26106;SDS011;13866;50.748;12.630;2022-08-25T10:54:05;22.97;;;7.47;;
26106;SDS011;13866;50.748;12.630;2022-08-25T11:02:47;20.50;;;8.00;;
26106;SDS011;13866;50.748;12.630;2022-08-25T11:11:04;20.17;;;7.23;;
26106;SDS011;13866;50.748;12.630;2022-08-25T11:16:35;16.63;;;7.67;;
26106;SDS011;13866;50.748;12.630;2022-08-25T11:19:13;30.57;;;7.60;;
26106;SDS011;13866;50.748;12.630;2022-08-25T11:22:06;17.83;;;6.97;;
26106;SDS011;13866;50.748;12.630;2022-08-25T11:24:41;15.13;;;7.53;;
26106;SDS011;13866;50.748;12.630;2022-08-25T11:27:20;29.73;;;7.50;;
26106;SDS011;13866;50.748;12.630;2022-08-25T11:30:02;13.70;;;6.30;;
26106;SDS011;13866;50.748;12.630;2022-08-25T11:32:33;25.30;;;7.33;;
26106;SDS011;13866;50.748;12.630;2022-08-25T11:35:04;26.53;;;7.60;;
26106;SDS011;13866;50.748;12.630;2022-08-25T11:37:33;26.47;;;6.60;;
26106;SDS011;13866;50.748;12.630;2022-08-25T11:40:19;22.63;;;5.90;;
26106;SDS011;13866;50.748;12.630;2022-08-25T11:48:55;21.10;;;7.03;;
26106;SDS011;13866;50.748;12.630;2022-08-25T11:51:41;18.80;;;6.70;;
26106;SDS011;13866;50.748;12.630;2022-08-25T11:57:16;12.30;;;6.43;;
26106;SDS011;13866;50.748;12.630;2022-08-25T12:10:19;13.33;;;6.50;;
26106;SDS011;13866;50.748;12.630;2022-08-25T12:13:00;21.27;;;6.80;;
26106;SDS011;13866;50.748;12.630;2022-08-25T12:18:06;23.47;;;6.23;;
26106;SDS011;13866;50.748;12.630;2022-08-25T12:26:12;15.67;;;5.70;;
26106;SDS011;13866;50.748;12.630;2022-08-25T12:29:05;24.33;;;7.07;;
26106;SDS011;13866;50.748;12.630;2022-08-25T12:37:11;21.80;;;8.00;;
26106;SDS011;13866;50.748;12.630;2022-08-25T12:39:41;36.50;;;7.30;;
26106;SDS011;13866;50.748;12.630;2022-08-25T12:42:35;41.80;;;8.43;;
26106;SDS011;13866;50.748;12.630;2022-08-25T12:45:12;21.97;;;6.97;;
26106;SDS011;13866;50.748;12.630;2022-08-25T12:47:45;37.20;;;7.40;;
26106;SDS011;13866;50.748;12.630;2022-08-25T12:53:06;30.77;;;7.73;;
26106;SDS011;13866;50.748;12.630;2022-08-25T12:55:40;20.27;;;7.73;;
26106;SDS011;13866;50.748;12.630;2022-08-25T12:58:14;20.40;;;6.50;;
26106;SDS011;13866;50.748;12.630;2022-08-25T13:00:59;34.33;;;7.90;;
26106;SDS011;13866;50.748;12.630;2022-08-25T13:06:52;25.63;;;7.37;;
26106;SDS011;13866;50.748;12.630;2022-08-25T13:12:44;21.87;;;6.60;;
26106;SDS011;13866;50.748;12.630;2022-08-25T13:15:25;36.50;;;7.20;;
26106;SDS011;13866;50.748;12.630;2022-08-25T13:20:58;20.90;;;6.47;;
26106;SDS011;13866;50.748;12.630;2022-08-25T13:23:27;19.03;;;6.30;;
26106;SDS011;13866;50.748;12.630;2022-08-25T13:25:55;35.73;;;7.83;;
26106;SDS011;13866;50.748;12.630;2022-08-25T13:28:37;19.03;;;6.37;;
26106;SDS011;13866;50.748;12.630;2022-08-25T13:31:07;24.93;;;7.63;;
26106;SDS011;13866;50.748;12.630;2022-08-25T13:33:53;38.37;;;6.47;;
26106;SDS011;13866;50.748;12.630;2022-08-25T13:36:31;27.53;;;6.70;;
26106;SDS011;13866;50.748;12.630;2022-08-25T13:39:20;23.90;;;5.30;;
26106;SDS011;13866;50.748;12.630;2022-08-25T13:41:52;26.10;;;6.37;;
26106;SDS011;13866;50.748;12.630;2022-08-25T13:44:20;39.60;;;6.93;;
26106;SDS011;13866;50.748;12.630;2022-08-25T13:47:03;32.57;;;7.20;;
26106;SDS011;13866;50.748;12.630;2022-08-25T13:49:40;15.23;;;6.37;;
26106;SDS011;13866;50.748;12.630;2022-08-25T13:52:14;15.40;;;6.30;;
26106;SDS011;13866;50.748;12.630;2022-08-25T13:54:48;29.80;;;6.97;;
26106;SDS011;13866;50.748;12.630;2022-08-25T13:57:18;18.80;;;6.00;;
26106;SDS011;13866;50.748;12.630;2022-08-25T13:59:48;20.93;;;5.87;;
26106;SDS011;13866;50.748;12.630;2022-08-25T14:02:37;47.57;;;6.93;;
26106;SDS011;13866;50.748;12.630;2022-08-25T14:05:16;29.90;;;8.40;;
26106;SDS011;13866;50.748;12.630;2022-08-25T14:07:59;30.60;;;7.67;;
26106;SDS011;13866;50.748;12.630;2022-08-25T14:10:39;19.70;;;7.87;;
26106;SDS011;13866;50.748;12.630;2022-08-25T14:13:11;23.00;;;6.13;;
26106;SDS011;13866;50.748;12.630;2022-08-25T14:15:52;30.03;;;7.67;;
26106;SDS011;13866;50.748;12.630;2022-08-25T14:18:24;28.60;;;7.37;;
26106;SDS011;13866;50.748;12.630;2022-08-25T14:20:55;26.40;;;6.53;;
26106;SDS011;13866;50.748;12.630;2022-08-25T14:23:22;36.80;;;6.93;;
26106;SDS011;13866;50.748;12.630;2022-08-25T14:25:51;34.27;;;7.63;;
26106;SDS011;13866;50.748;12.630;2022-08-25T14:28:19;21.30;;;6.03;;
26106;SDS011;13866;50.748;12.630;2022-08-25T14:30:48;22.67;;;6.80;;
26106;SDS011;13866;50.748;12.630;2022-08-25T14:33:20;31.70;;;7.20;;
26106;SDS011;13866;50.748;12.630;2022-08-25T14:35:49;20.70;;;7.20;;
26106;SDS011;13866;50.748;12.630;2022-08-25T14:38:17;25.77;;;6.87;;
26106;SDS011;13866;50.748;12.630;2022-08-25T14:40:44;30.67;;;8.60;;
26106;SDS011;13866;50.748;12.630;2022-08-25T14:43:09;19.83;;;6.63;;
26106;SDS011;13866;50.748;12.630;2022-08-25T14:45:36;34.80;;;8.53;;
26106;SDS011;13866;50.748;12.630;2022-08-25T14:48:04;19.60;;;5.87;;
26106;SDS011;13866;50.748;12.630;2022-08-25T14:50:33;25.50;;;7.10;;
26106;SDS011;13866;50.748;12.630;2022-08-25T14:52:59;38.67;;;6.63;;
26106;SDS011;13866;50.748;12.630;2022-08-25T14:55:26;26.33;;;6.80;;
26106;SDS011;13866;50.748;12.630;2022-08-25T14:57:53;33.47;;;6.23;;
26106;SDS011;13866;50.748;12.630;2022-08-25T15:00:18;14.23;;;6.83;;
26106;SDS011;13866;50.748;12.630;2022-08-25T15:02:44;21.17;;;7.13;;
26106;SDS011;13866;50.748;12.630;2022-08-25T15:05:14;24.53;;;5.90;;
26106;SDS011;13866;50.748;12.630;2022-08-25T15:07:41;30.13;;;7.60;;
26106;SDS011;13866;50.748;12.630;2022-08-25T15:10:25;25.80;;;6.50;;
26106;SDS011;13866;50.748;12.630;2022-08-25T15:12:51;23.63;;;6.80;;
26106;SDS011;13866;50.748;12.630;2022-08-25T15:15:16;23.90;;;6.73;;
26106;SDS011;13866;50.748;12.630;2022-08-25T15:17:43;12.30;;;5.33;;
26106;SDS011;13866;50.748;12.630;2022-08-25T15:20:11;25.77;;;5.97;;
26106;SDS011;13866;50.748;12.630;2022-08-25T15:22:37;16.03;;;6.50;;
26106;SDS011;13866;50.748;12.630;2022-08-25T15:25:03;30.93;;;6.87;;
26106;SDS011;13866;50.748;12.630;2022-08-25T15:27:29;28.20;;;6.97;;
26106;SDS011;13866;50.748;12.630;2022-08-25T15:29:55;28.23;;;6.77;;
26106;SDS011;13866;50.748;12.630;2022-08-25T15:32:20;13.97;;;6.70;;
26106;SDS011;13866;50.748;12.630;2022-08-25T15:34:46;23.83;;;6.40;;
26106;SDS011;13866;50.748;12.630;2022-08-25T15:37:12;26.13;;;7.13;;
26106;SDS011;13866;50.748;12.630;2022-08-25T15:39:39;22.87;;;6.20;;
26106;SDS011;13866;50.748;12.630;2022-08-25T15:42:08;25.53;;;6.33;;
26106;SDS011;13866;50.748;12.630;2022-08-25T15:44:36;21.33;;;6.63;;
26106;SDS011;13866;50.748;12.630;2022-08-25T15:47:05;25.03;;;7.23;;
26106;SDS011;13866;50.748;12.630;2022-08-25T15:49:31;24.87;;;6.57;;
26106;SDS011;13866;50.748;12.630;2022-08-25T15:51:57;21.40;;;5.60;;
26106;SDS011;13866;50.748;12.630;2022-08-25T15:54:24;27.67;;;6.87;;
26106;SDS011;13866;50.748;12.630;2022-08-25T15:56:51;23.17;;;6.50;;
26106;SDS011;13866;50.748;12.630;2022-08-25T15:59:17;18.60;;;5.60;;
26106;SDS011;13866;50.748;12.630;2022-08-25T16:01:43;22.27;;;5.50;;
26106;SDS011;13866;50.748;12.630;2022-08-25T16:04:09;15.53;;;6.37;;
26106;SDS011;13866;50.748;12.630;2022-08-25T16:06:34;26.90;;;6.83;;
26106;SDS011;13866;50.748;12.630;2022-08-25T16:09:00;18.97;;;6.20;;